Time,TemperatureF,DewpointF,PressureIn,WindDirection,WindDirectionDegrees,WindSpeedMPH,WindSpeedGustMPH,Humidity,HourlyPrecipIn,Conditions,Clouds,dailyrainin,SoftwareType,DateUTC
2013-04-28 00:04:00,43.3,35.6,30.28,SW,226,0.0,0.0,74,0.00,,,0.00,Wunderground v.1.15,2013-04-28 04:04:00,
2013-04-28 00:09:00,43.2,35.5,30.28,SW,226,0.0,0.0,74,0.00,,,0.00,Wunderground v.1.15,2013-04-28 04:09:00,
2013-04-28 00:14:00,43.1,35.4,30.28,SW,226,0.0,0.0,74,0.00,,,0.00,Wunderground v.1.15,2013-04-28 04:14:00,
2013-04-28 00:19:00,42.9,35.2,30.29,SW,226,0.0,0.0,74,0.00,,,0.00,Wunderground v.1.15,2013-04-28 04:19:00,
2013-04-28 00:24:00,42.8,35.1,30.29,SW,226,0.0,0.0,74,0.00,,,0.00,Wunderground v.1.15,2013-04-28 04:24:00,
2013-04-28 00:29:00,42.6,35.2,30.29,SW,226,0.0,0.0,75,0.00,,,0.00,Wunderground v.1.15,2013-04-28 04:29:00,
2013-04-28 00:34:00,42.5,35.5,30.29,SW,226,0.0,0.0,76,0.00,,,0.00,Wunderground v.1.15,2013-04-28 04:34:00,
2013-04-28 00:39:00,42.3,34.9,30.29,SW,226,0.0,0.0,75,0.00,,,0.00,Wunderground v.1.15,2013-04-28 04:39:00,
2013-04-28 00:44:00,42.2,35.2,30.29,SW,226,0.0,0.0,76,0.00,,,0.00,Wunderground v.1.15,2013-04-28 04:44:00,
2013-04-28 00:49:00,42.1,35.1,30.29,SW,226,0.0,0.0,76,0.00,,,0.00,Wunderground v.1.15,2013-04-28 04:49:00,
2013-04-28 00:54:00,41.9,34.6,30.29,SW,226,0.0,0.0,75,0.00,,,0.00,Wunderground v.1.15,2013-04-28 04:54:00,
2013-04-28 00:59:00,41.8,34.5,30.28,SW,226,0.0,0.0,75,0.00,,,0.00,Wunderground v.1.15,2013-04-28 04:59:00,
2013-04-28 01:04:00,41.6,34.9,30.28,SW,226,0.0,0.0,77,0.00,,,0.00,Wunderground v.1.15,2013-04-28 05:04:00,
2013-04-28 01:09:00,41.5,35.2,30.28,SW,226,0.0,0.0,78,0.00,,,0.00,Wunderground v.1.15,2013-04-28 05:09:00,
2013-04-28 01:14:00,41.3,35.0,30.28,SW,226,0.0,0.0,78,0.00,,,0.00,Wunderground v.1.15,2013-04-28 05:14:00,
2013-04-28 01:19:00,41.2,34.9,30.28,SW,226,0.0,0.0,78,0.00,,,0.00,Wunderground v.1.15,2013-04-28 05:19:00,
2013-04-28 01:24:00,41.1,35.1,30.28,SW,226,0.0,0.0,79,0.00,,,0.00,Wunderground v.1.15,2013-04-28 05:24:00,
2013-04-28 01:29:00,40.9,35.2,30.28,SW,226,0.0,0.0,80,0.00,,,0.00,Wunderground v.1.15,2013-04-28 05:29:00,
2013-04-28 01:34:00,40.8,35.4,30.28,SW,226,0.0,0.0,81,0.00,,,0.00,Wunderground v.1.15,2013-04-28 05:34:00,
2013-04-28 01:44:00,40.6,35.2,30.28,SW,226,0.0,0.0,81,0.00,,,0.00,Wunderground v.1.15,2013-04-28 05:44:00,
2013-04-28 01:49:00,40.5,35.1,30.27,SW,226,0.0,0.0,81,0.00,,,0.00,Wunderground v.1.15,2013-04-28 05:49:00,
2013-04-28 01:54:00,40.5,35.4,30.27,SW,226,0.0,0.0,82,0.00,,,0.00,Wunderground v.1.15,2013-04-28 05:54:00,
2013-04-28 01:59:00,40.3,35.5,30.27,SW,226,0.0,0.0,83,0.00,,,0.00,Wunderground v.1.15,2013-04-28 05:59:00,
2013-04-28 02:04:00,40.2,35.8,30.27,SW,226,0.0,0.0,84,0.00,,,0.00,Wunderground v.1.15,2013-04-28 06:04:00,
2013-04-28 02:14:00,40.1,35.4,30.27,SW,226,0.0,0.0,83,0.00,,,0.00,Wunderground v.1.15,2013-04-28 06:14:00,
2013-04-28 02:19:00,39.9,35.2,30.26,SW,226,0.0,0.0,83,0.00,,,0.00,Wunderground v.1.15,2013-04-28 06:19:00,
2013-04-28 02:24:00,39.8,35.1,30.26,SW,226,0.0,0.0,83,0.00,,,0.00,Wunderground v.1.15,2013-04-28 06:24:00,
2013-04-28 02:29:00,39.6,34.9,30.26,SW,226,0.0,0.0,83,0.00,,,0.00,Wunderground v.1.15,2013-04-28 06:29:00,
2013-04-28 02:34:00,39.5,34.5,30.26,SW,226,0.0,0.0,82,0.00,,,0.00,Wunderground v.1.15,2013-04-28 06:34:00,
2013-04-28 02:44:00,39.1,34.4,30.26,SW,226,0.0,0.0,83,0.00,,,0.00,Wunderground v.1.15,2013-04-28 06:44:00,
2013-04-28 02:49:00,38.9,34.2,30.26,SW,226,0.0,0.0,83,0.00,,,0.00,Wunderground v.1.15,2013-04-28 06:49:00,
2013-04-28 02:54:00,38.8,34.1,30.26,SW,226,0.0,0.0,83,0.00,,,0.00,Wunderground v.1.15,2013-04-28 06:54:00,
2013-04-28 02:59:00,38.5,33.8,30.26,SW,226,0.0,0.0,83,0.00,,,0.00,Wunderground v.1.15,2013-04-28 06:59:00,
2013-04-28 03:04:00,38.3,33.6,30.26,SW,226,0.0,0.0,83,0.00,,,0.00,Wunderground v.1.15,2013-04-28 07:04:00,
2013-04-28 03:09:00,38.2,33.8,30.26,SW,226,0.0,0.0,84,0.00,,,0.00,Wunderground v.1.15,2013-04-28 07:09:00,
2013-04-28 03:19:00,37.9,33.5,30.26,SW,226,0.0,0.0,84,0.00,,,0.00,Wunderground v.1.15,2013-04-28 07:19:00,
2013-04-28 03:24:00,37.8,33.4,30.26,SW,226,0.0,0.0,84,0.00,,,0.00,Wunderground v.1.15,2013-04-28 07:24:00,
2013-04-28 03:29:00,37.6,33.5,30.26,SW,226,0.0,0.0,85,0.00,,,0.00,Wunderground v.1.15,2013-04-28 07:29:00,
2013-04-28 03:39:00,37.3,33.5,30.27,SW,226,0.0,0.0,86,0.00,,,0.00,Wunderground v.1.15,2013-04-28 07:39:00,
2013-04-28 03:44:00,37.2,33.4,30.27,SW,226,0.0,0.0,86,0.00,,,0.00,Wunderground v.1.15,2013-04-28 07:44:00,
2013-04-28 03:54:00,36.9,33.4,30.26,SW,226,0.0,0.0,87,0.00,,,0.00,Wunderground v.1.15,2013-04-28 07:54:00,
2013-04-28 03:59:00,36.9,33.4,30.26,SW,226,0.0,0.0,87,0.00,,,0.00,Wunderground v.1.15,2013-04-28 07:59:00,
2013-04-28 04:04:00,36.8,33.3,30.26,SW,226,0.0,0.0,87,0.00,,,0.00,Wunderground v.1.15,2013-04-28 08:04:00,
2013-04-28 04:09:00,36.6,32.8,30.26,SW,226,0.0,0.0,86,0.00,,,0.00,Wunderground v.1.15,2013-04-28 08:09:00,
2013-04-28 04:14:00,36.6,33.1,30.26,SW,226,0.0,0.0,87,0.00,,,0.00,Wunderground v.1.15,2013-04-28 08:14:00,
2013-04-28 04:19:00,36.5,33.3,30.26,SW,226,0.0,0.0,88,0.00,,,0.00,Wunderground v.1.15,2013-04-28 08:19:00,
2013-04-28 04:29:00,36.3,33.1,30.26,SW,226,0.0,0.0,88,0.00,,,0.00,Wunderground v.1.15,2013-04-28 08:29:00,
2013-04-28 04:34:00,36.2,33.0,30.26,SW,226,0.0,0.0,88,0.00,,,0.00,Wunderground v.1.15,2013-04-28 08:34:00,
2013-04-28 04:39:00,36.2,33.3,30.26,SW,226,0.0,0.0,89,0.00,,,0.00,Wunderground v.1.15,2013-04-28 08:39:00,
2013-04-28 04:44:00,36.0,33.1,30.26,SW,226,0.0,0.0,89,0.00,,,0.00,Wunderground v.1.15,2013-04-28 08:44:00,
2013-04-28 04:49:00,35.9,33.0,30.26,SW,226,0.0,0.0,89,0.00,,,0.00,Wunderground v.1.15,2013-04-28 08:49:00,
2013-04-28 04:59:00,35.8,32.9,30.26,SW,226,0.0,0.0,89,0.00,,,0.00,Wunderground v.1.15,2013-04-28 08:59:00,
2013-04-28 05:04:00,35.6,32.7,30.26,SW,226,0.0,0.0,89,0.00,,,0.00,Wunderground v.1.15,2013-04-28 09:04:00,
2013-04-28 05:09:00,35.6,32.7,30.26,SW,226,0.0,0.0,89,0.00,,,0.00,Wunderground v.1.15,2013-04-28 09:09:00,
2013-04-28 05:14:00,35.5,32.9,30.26,SW,226,0.0,0.0,90,0.00,,,0.00,Wunderground v.1.15,2013-04-28 09:14:00,
2013-04-28 05:19:00,35.3,32.7,30.26,SW,226,0.0,0.0,90,0.00,,,0.00,Wunderground v.1.15,2013-04-28 09:19:00,
2013-04-28 05:24:00,35.2,32.6,30.26,SW,226,0.0,0.0,90,0.00,,,0.00,Wunderground v.1.15,2013-04-28 09:24:00,
2013-04-28 05:34:00,35.0,32.1,30.26,SW,226,0.0,0.0,89,0.00,,,0.00,Wunderground v.1.15,2013-04-28 09:34:00,
2013-04-28 05:39:00,34.9,32.0,30.26,SW,226,0.0,0.0,89,0.00,,,0.00,Wunderground v.1.15,2013-04-28 09:39:00,
2013-04-28 05:44:00,34.7,31.8,30.26,SW,226,0.0,0.0,89,0.00,,,0.00,Wunderground v.1.15,2013-04-28 09:44:00,
2013-04-28 05:49:00,34.7,32.1,30.26,SW,226,0.0,0.0,90,0.00,,,0.00,Wunderground v.1.15,2013-04-28 09:49:00,
2013-04-28 05:54:00,34.6,32.0,30.26,SW,226,0.0,0.0,90,0.00,,,0.00,Wunderground v.1.15,2013-04-28 09:54:00,
2013-04-28 06:04:00,34.4,31.8,30.27,SW,226,0.0,0.0,90,0.00,,,0.00,Wunderground v.1.15,2013-04-28 10:04:00,
2013-04-28 06:09:00,34.4,31.8,30.27,SW,226,0.0,0.0,90,0.00,,,0.00,Wunderground v.1.15,2013-04-28 10:09:00,
2013-04-28 06:14:00,34.3,31.7,30.27,SW,226,0.0,0.0,90,0.00,,,0.00,Wunderground v.1.15,2013-04-28 10:14:00,
2013-04-28 06:19:00,34.3,31.9,30.27,SW,226,0.0,0.0,91,0.00,,,0.00,Wunderground v.1.15,2013-04-28 10:19:00,
2013-04-28 06:24:00,34.3,31.9,30.27,SW,226,0.0,0.0,91,0.00,,,0.00,Wunderground v.1.15,2013-04-28 10:24:00,
2013-04-28 06:29:00,34.3,32.2,30.27,SW,226,0.0,0.0,92,0.00,,,0.00,Wunderground v.1.15,2013-04-28 10:29:00,
2013-04-28 06:39:00,34.4,32.3,30.27,SW,226,0.0,0.0,92,0.00,,,0.00,Wunderground v.1.15,2013-04-28 10:39:00,
2013-04-28 06:44:00,34.4,32.6,30.27,SW,226,0.0,0.0,93,0.00,,,0.00,Wunderground v.1.15,2013-04-28 10:44:00,
2013-04-28 06:54:00,34.7,32.9,30.27,SW,226,0.0,0.0,93,0.00,,,0.00,Wunderground v.1.15,2013-04-28 10:54:00,
2013-04-28 06:59:00,34.9,33.3,30.27,SW,226,0.0,0.0,94,0.00,,,0.00,Wunderground v.1.15,2013-04-28 10:59:00,
2013-04-28 07:04:00,35.0,33.4,30.27,SW,226,0.0,0.0,94,0.00,,,0.00,Wunderground v.1.15,2013-04-28 11:04:00,
2013-04-28 07:14:00,35.6,34.3,30.27,SW,226,0.0,0.0,95,0.00,,,0.00,Wunderground v.1.15,2013-04-28 11:14:00,
2013-04-28 07:19:00,35.9,34.6,30.28,SW,226,0.0,0.0,95,0.00,,,0.00,Wunderground v.1.15,2013-04-28 11:19:00,
2013-04-28 07:24:00,36.3,35.3,30.28,SW,226,0.0,0.0,96,0.00,,,0.00,Wunderground v.1.15,2013-04-28 11:24:00,
2013-04-28 07:29:00,36.8,35.8,30.28,SW,226,0.0,0.0,96,0.00,,,0.00,Wunderground v.1.15,2013-04-28 11:29:00,
2013-04-28 07:34:00,37.0,36.0,30.28,SW,226,0.0,0.0,96,0.00,,,0.00,Wunderground v.1.15,2013-04-28 11:34:00,
2013-04-28 07:44:00,38.0,37.2,30.28,SW,226,0.0,0.0,97,0.00,,,0.00,Wunderground v.1.15,2013-04-28 11:44:00,
2013-04-28 07:49:00,38.5,37.7,30.28,SW,226,0.0,0.0,97,0.00,,,0.00,Wunderground v.1.15,2013-04-28 11:49:00,
2013-04-28 07:54:00,38.9,38.4,30.28,SW,226,0.0,0.0,98,0.00,,,0.00,Wunderground v.1.15,2013-04-28 11:54:00,
2013-04-28 07:59:00,39.6,39.1,30.28,SW,226,0.0,0.0,98,0.00,,,0.00,Wunderground v.1.15,2013-04-28 11:59:00,
2013-04-28 08:04:00,40.3,39.8,30.28,SW,226,0.0,0.0,98,0.00,,,0.00,Wunderground v.1.15,2013-04-28 12:04:00,
2013-04-28 08:09:00,41.1,40.6,30.28,SW,226,0.0,0.0,98,0.00,,,0.00,Wunderground v.1.15,2013-04-28 12:09:00,
2013-04-28 08:19:00,42.9,42.1,30.29,SW,226,0.0,0.0,97,0.00,,,0.00,Wunderground v.1.15,2013-04-28 12:19:00,
2013-04-28 08:24:00,44.2,41.7,30.29,SW,226,0.0,0.0,91,0.00,,,0.00,Wunderground v.1.15,2013-04-28 12:24:00,
2013-04-28 08:29:00,45.2,41.0,30.29,SW,226,0.0,0.0,85,0.00,,,0.00,Wunderground v.1.15,2013-04-28 12:29:00,
2013-04-28 08:34:00,47.0,41.5,30.29,SW,226,0.0,0.0,81,0.00,,,0.00,Wunderground v.1.15,2013-04-28 12:34:00,
2013-04-28 08:39:00,48.5,40.9,30.29,SW,226,0.0,0.0,75,0.00,,,0.00,Wunderground v.1.15,2013-04-28 12:39:00,
2013-04-28 08:49:00,51.1,39.7,30.29,SW,219,0.0,0.0,65,0.00,,,0.00,Wunderground v.1.15,2013-04-28 12:49:00,
2013-04-28 08:54:00,52.0,40.2,30.29,SW,219,0.0,0.0,64,0.00,,,0.00,Wunderground v.1.15,2013-04-28 12:54:00,
2013-04-28 08:59:00,52.9,40.2,30.29,SSW,210,0.0,0.0,62,0.00,,,0.00,Wunderground v.1.15,2013-04-28 12:59:00,
2013-04-28 09:04:00,53.9,40.8,30.29,SSW,210,0.0,0.0,61,0.00,,,0.00,Wunderground v.1.15,2013-04-28 13:04:00,
2013-04-28 09:09:00,54.8,41.6,30.29,SSW,210,0.0,0.0,61,0.00,,,0.00,Wunderground v.1.15,2013-04-28 13:09:00,
2013-04-28 09:14:00,55.9,41.8,30.29,SSW,210,0.0,0.0,59,0.00,,,0.00,Wunderground v.1.15,2013-04-28 13:14:00,
2013-04-28 09:24:00,57.6,41.5,30.29,SSW,192,0.0,0.0,55,0.00,,,0.00,Wunderground v.1.15,2013-04-28 13:24:00,
2013-04-28 09:29:00,58.4,41.3,30.29,SSW,192,0.0,0.0,53,0.00,,,0.00,Wunderground v.1.15,2013-04-28 13:29:00,
2013-04-28 09:34:00,59.2,41.6,30.29,WSW,248,0.0,0.0,52,0.00,,,0.00,Wunderground v.1.15,2013-04-28 13:34:00,
2013-04-28 09:39:00,59.8,39.5,30.29,South,188,1.0,2.0,47,0.00,,,0.00,Wunderground v.1.15,2013-04-28 13:39:00,
2013-04-28 09:44:00,60.2,41.5,30.29,NW,304,1.0,2.0,50,0.00,,,0.00,Wunderground v.1.15,2013-04-28 13:44:00,
2013-04-28 09:54:00,61.6,40.0,30.29,WSW,247,0.0,1.0,45,0.00,,,0.00,Wunderground v.1.15,2013-04-28 13:54:00,
2013-04-28 09:59:00,62.4,41.9,30.29,NNW,347,0.0,0.0,47,0.00,,,0.00,Wunderground v.1.15,2013-04-28 13:59:00,
2013-04-28 10:09:00,63.4,41.1,30.29,SSE,151,0.0,0.0,44,0.00,,,0.00,Wunderground v.1.15,2013-04-28 14:09:00,
2013-04-28 10:14:00,64.0,39.2,30.29,SSE,150,0.0,0.0,40,0.00,,,0.00,Wunderground v.1.15,2013-04-28 14:14:00,
2013-04-28 10:19:00,64.2,40.6,30.29,SW,226,0.0,0.0,42,0.00,,,0.00,Wunderground v.1.15,2013-04-28 14:19:00,
2013-04-28 10:24:00,64.8,41.2,30.29,SW,217,1.0,2.0,42,0.00,,,0.00,Wunderground v.1.15,2013-04-28 14:24:00,
2013-04-28 10:34:00,64.5,38.3,30.29,WSW,258,1.0,1.0,38,0.00,,,0.00,Wunderground v.1.15,2013-04-28 14:34:00,
2013-04-28 10:39:00,65.0,38.8,30.29,SW,215,1.0,1.0,38,0.00,,,0.00,Wunderground v.1.15,2013-04-28 14:39:00,
2013-04-28 10:44:00,65.5,37.1,30.29,NNE,17,0.0,1.0,35,0.00,,,0.00,Wunderground v.1.15,2013-04-28 14:44:00,
2013-04-28 10:49:00,65.5,37.1,30.28,SSE,150,0.0,1.0,35,0.00,,,0.00,Wunderground v.1.15,2013-04-28 14:49:00,
2013-04-28 10:54:00,66.3,37.8,30.28,SW,216,3.0,3.0,35,0.00,,,0.00,Wunderground v.1.15,2013-04-28 14:54:00,
2013-04-28 11:04:00,66.1,37.6,30.28,WSW,237,3.0,3.0,35,0.00,,,0.00,Wunderground v.1.15,2013-04-28 15:04:00,
2013-04-28 11:09:00,66.4,37.9,30.28,SE,140,1.0,1.0,35,0.00,,,0.00,Wunderground v.1.15,2013-04-28 15:09:00,
2013-04-28 11:14:00,66.3,37.8,30.28,SSE,151,2.0,2.0,35,0.00,,,0.00,Wunderground v.1.15,2013-04-28 15:14:00,
2013-04-28 11:19:00,66.1,37.6,30.27,SW,229,3.0,4.0,35,0.00,,,0.00,Wunderground v.1.15,2013-04-28 15:19:00,
2013-04-28 11:24:00,66.0,37.5,30.27,SW,216,3.0,4.0,35,0.00,,,0.00,Wunderground v.1.15,2013-04-28 15:24:00,
2013-04-28 11:34:00,66.4,35.6,30.27,WSW,247,1.0,7.0,32,0.00,,,0.00,Wunderground v.1.15,2013-04-28 15:34:00,
2013-04-28 11:39:00,66.6,35.8,30.27,SE,124,3.0,3.0,32,0.00,,,0.00,Wunderground v.1.15,2013-04-28 15:39:00,
2013-04-28 11:44:00,66.4,35.6,30.27,SW,233,2.0,3.0,32,0.00,,,0.00,Wunderground v.1.15,2013-04-28 15:44:00,
2013-04-28 11:49:00,66.4,35.6,30.26,SE,140,1.0,2.0,32,0.00,,,0.00,Wunderground v.1.15,2013-04-28 15:49:00,
2013-04-28 11:54:00,67.3,36.4,30.26,WSW,256,1.0,2.0,32,0.00,,,0.00,Wunderground v.1.15,2013-04-28 15:54:00,
2013-04-28 11:59:00,67.6,36.7,30.26,SSE,151,1.0,1.0,32,0.00,,,0.00,Wunderground v.1.15,2013-04-28 15:59:00,
2013-04-28 12:09:00,68.1,35.5,30.26,SW,234,1.0,1.0,30,0.00,,,0.00,Wunderground v.1.15,2013-04-28 16:09:00,
2013-04-28 12:14:00,68.4,35.7,30.26,SSE,157,1.0,6.0,30,0.00,,,0.00,Wunderground v.1.15,2013-04-28 16:14:00,
2013-04-28 12:19:00,68.6,36.7,30.25,WNW,284,2.0,2.0,31,0.00,,,0.00,Wunderground v.1.15,2013-04-28 16:19:00,
2013-04-28 12:24:00,68.9,37.0,30.25,SW,229,2.0,2.0,31,0.00,,,0.00,Wunderground v.1.15,2013-04-28 16:24:00,
2013-04-28 12:29:00,69.4,39.8,30.25,SSE,155,1.0,1.0,34,0.00,,,0.00,Wunderground v.1.15,2013-04-28 16:29:00,
2013-04-28 12:39:00,69.4,35.7,30.25,SW,215,1.0,2.0,29,0.00,,,0.00,Wunderground v.1.15,2013-04-28 16:39:00,
2013-04-28 12:44:00,69.6,37.6,30.25,SW,233,1.0,2.0,31,0.00,,,0.00,Wunderground v.1.15,2013-04-28 16:44:00,
2013-04-28 12:49:00,70.1,38.0,30.24,West,270,1.0,1.0,31,0.00,,,0.00,Wunderground v.1.15,2013-04-28 16:49:00,
2013-04-28 12:54:00,70.3,36.5,30.24,ESE,110,1.0,2.0,29,0.00,,,0.00,Wunderground v.1.15,2013-04-28 16:54:00,
2013-04-28 12:59:00,70.4,35.7,30.24,SW,222,1.0,1.0,28,0.00,,,0.00,Wunderground v.1.15,2013-04-28 16:59:00,
2013-04-28 13:04:00,70.3,35.6,30.24,WSW,250,1.0,1.0,28,0.00,,,0.00,Wunderground v.1.15,2013-04-28 17:04:00,
2013-04-28 13:14:00,69.9,38.7,30.24,SW,227,1.0,2.0,32,0.00,,,0.00,Wunderground v.1.15,2013-04-28 17:14:00,
2013-04-28 13:19:00,69.4,39.8,30.24,SSW,192,2.0,2.0,34,0.00,,,0.00,Wunderground v.1.15,2013-04-28 17:19:00,
2013-04-28 13:24:00,69.3,39.7,30.24,SSW,198,2.0,5.0,34,0.00,,,0.00,Wunderground v.1.15,2013-04-28 17:24:00,
2013-04-28 13:34:00,68.8,39.3,30.23,SSE,160,2.0,2.0,34,0.00,,,0.00,Wunderground v.1.15,2013-04-28 17:34:00,
2013-04-28 13:39:00,68.6,39.8,30.23,NNE,27,1.0,1.0,35,0.00,,,0.00,Wunderground v.1.15,2013-04-28 17:39:00,
2013-04-28 13:44:00,68.4,39.7,30.23,SE,128,2.0,2.0,35,0.00,,,0.00,Wunderground v.1.15,2013-04-28 17:44:00,
2013-04-28 13:54:00,68.4,38.9,30.23,SE,126,2.0,3.0,34,0.00,,,0.00,Wunderground v.1.15,2013-04-28 17:54:00,
2013-04-28 13:59:00,68.4,38.9,30.23,South,171,2.0,2.0,34,0.00,,,0.00,Wunderground v.1.15,2013-04-28 17:59:00,
2013-04-28 14:04:00,68.6,40.6,30.22,SSW,192,2.0,2.0,36,0.00,,,0.00,Wunderground v.1.15,2013-04-28 18:04:00,
2013-04-28 14:09:00,68.8,40.7,30.22,West,268,2.0,3.0,36,0.00,,,0.00,Wunderground v.1.15,2013-04-28 18:09:00,
2013-04-28 14:19:00,68.4,38.2,30.22,SW,217,2.0,3.0,33,0.00,,,0.00,Wunderground v.1.15,2013-04-28 18:19:00,
2013-04-28 14:24:00,68.3,38.8,30.22,ESE,116,3.0,3.0,34,0.00,,,0.00,Wunderground v.1.15,2013-04-28 18:24:00,
2013-04-28 14:29:00,68.3,38.8,30.22,SE,143,2.0,2.0,34,0.00,,,0.00,Wunderground v.1.15,2013-04-28 18:29:00,
2013-04-28 14:34:00,68.1,38.7,30.22,NNE,23,3.0,5.0,34,0.00,,,0.00,Wunderground v.1.15,2013-04-28 18:34:00,
2013-04-28 14:39:00,67.9,36.9,30.22,WSW,240,2.0,2.0,32,0.00,,,0.00,Wunderground v.1.15,2013-04-28 18:39:00,
2013-04-28 14:44:00,67.8,35.2,30.22,ENE,68,2.0,2.0,30,0.00,,,0.00,Wunderground v.1.15,2013-04-28 18:44:00,
2013-04-28 14:54:00,67.6,37.5,30.21,WSW,250,3.0,5.0,33,0.00,,,0.00,Wunderground v.1.15,2013-04-28 18:54:00,
2013-04-28 14:59:00,67.4,37.3,30.21,WSW,240,4.0,4.0,33,0.00,,,0.00,Wunderground v.1.15,2013-04-28 18:59:00,
2013-04-28 15:04:00,67.1,37.0,30.21,WNW,287,3.0,4.0,33,0.00,,,0.00,Wunderground v.1.15,2013-04-28 19:04:00,
2013-04-28 15:09:00,66.9,36.1,30.21,South,189,3.0,3.0,32,0.00,,,0.00,Wunderground v.1.15,2013-04-28 19:09:00,
2013-04-28 15:14:00,66.6,35.8,30.21,SE,126,4.0,4.0,32,0.00,,,0.00,Wunderground v.1.15,2013-04-28 19:14:00,
2013-04-28 15:24:00,66.3,37.1,30.20,ESE,117,3.0,4.0,34,0.00,,,0.00,Wunderground v.1.15,2013-04-28 19:24:00,
2013-04-28 15:29:00,66.0,35.3,30.20,West,274,3.0,3.0,32,0.00,,,0.00,Wunderground v.1.15,2013-04-28 19:29:00,
2013-04-28 15:34:00,66.0,35.3,30.20,WNW,285,3.0,3.0,32,0.00,,,0.00,Wunderground v.1.15,2013-04-28 19:34:00,
2013-04-28 15:39:00,66.0,35.3,30.20,SSW,203,3.0,3.0,32,0.00,,,0.00,Wunderground v.1.15,2013-04-28 19:39:00,
2013-04-28 15:44:00,66.1,35.4,30.20,West,275,1.0,3.0,32,0.00,,,0.00,Wunderground v.1.15,2013-04-28 19:44:00,
2013-04-28 15:49:00,66.1,36.9,30.19,SW,215,2.0,3.0,34,0.00,,,0.00,Wunderground v.1.15,2013-04-28 19:49:00,
2013-04-28 15:59:00,65.8,36.6,30.19,West,272,3.0,3.0,34,0.00,,,0.00,Wunderground v.1.15,2013-04-28 19:59:00,
2013-04-28 16:04:00,65.6,36.5,30.19,SW,234,3.0,3.0,34,0.00,,,0.00,Wunderground v.1.15,2013-04-28 20:04:00,
2013-04-28 16:09:00,65.5,35.6,30.19,WSW,248,3.0,3.0,33,0.00,,,0.00,Wunderground v.1.15,2013-04-28 20:09:00,
2013-04-28 16:14:00,65.3,36.9,30.19,West,278,2.0,3.0,35,0.00,,,0.00,Wunderground v.1.15,2013-04-28 20:14:00,
2013-04-28 16:19:00,65.2,36.1,30.19,SW,215,3.0,3.0,34,0.00,,,0.00,Wunderground v.1.15,2013-04-28 20:19:00,
2013-04-28 16:29:00,64.3,36.0,30.19,ESE,121,3.0,3.0,35,0.00,,,0.00,Wunderground v.1.15,2013-04-28 20:29:00,
2013-04-28 16:34:00,64.2,37.4,30.19,SE,134,2.0,3.0,37,0.00,,,0.00,Wunderground v.1.15,2013-04-28 20:34:00,
2013-04-28 16:39:00,63.9,35.7,30.19,NE,40,2.0,2.0,35,0.00,,,0.00,Wunderground v.1.15,2013-04-28 20:39:00,
2013-04-28 16:44:00,63.9,35.7,30.19,SW,234,2.0,2.0,35,0.00,,,0.00,Wunderground v.1.15,2013-04-28 20:44:00,
2013-04-28 16:49:00,63.5,36.7,30.19,South,172,2.0,2.0,37,0.00,,,0.00,Wunderground v.1.15,2013-04-28 20:49:00,
2013-04-28 16:59:00,63.2,37.2,30.19,SE,137,3.0,3.0,38,0.00,,,0.00,Wunderground v.1.15,2013-04-28 20:59:00,
2013-04-28 17:04:00,63.1,37.1,30.19,SSE,151,3.0,3.0,38,0.00,,,0.00,Wunderground v.1.15,2013-04-28 21:04:00,
2013-04-28 17:14:00,62.9,36.9,30.19,SSE,160,1.0,2.0,38,0.00,,,0.00,Wunderground v.1.15,2013-04-28 21:14:00,
2013-04-28 17:19:00,62.7,36.7,30.19,SW,236,2.0,2.0,38,0.00,,,0.00,Wunderground v.1.15,2013-04-28 21:19:00,
2013-04-28 17:24:00,62.6,36.6,30.19,WSW,256,2.0,2.0,38,0.00,,,0.00,Wunderground v.1.15,2013-04-28 21:24:00,
2013-04-28 17:29:00,62.4,37.1,30.19,SSE,167,2.0,2.0,39,0.00,,,0.00,Wunderground v.1.15,2013-04-28 21:29:00,
2013-04-28 17:39:00,62.1,38.1,30.20,NE,56,1.0,1.0,41,0.00,,,0.00,Wunderground v.1.15,2013-04-28 21:39:00,
2013-04-28 17:44:00,62.0,38.0,30.20,West,261,2.0,2.0,41,0.00,,,0.00,Wunderground v.1.15,2013-04-28 21:44:00,
2013-04-28 17:49:00,62.0,38.0,30.20,SSW,196,1.0,2.0,41,0.00,,,0.00,Wunderground v.1.15,2013-04-28 21:49:00,
2013-04-28 17:54:00,61.8,37.2,30.20,WSW,251,1.0,2.0,40,0.00,,,0.00,Wunderground v.1.15,2013-04-28 21:54:00,
2013-04-28 17:59:00,61.5,37.6,30.20,SW,215,2.0,2.0,41,0.00,,,0.00,Wunderground v.1.15,2013-04-28 21:59:00,
2013-04-28 18:09:00,61.2,37.3,30.20,WSW,246,1.0,1.0,41,0.00,,,0.00,Wunderground v.1.15,2013-04-28 22:09:00,
2013-04-28 18:14:00,60.9,37.6,30.20,SSW,202,2.0,5.0,42,0.00,,,0.00,Wunderground v.1.15,2013-04-28 22:14:00,
2013-04-28 18:19:00,60.7,37.5,30.20,SW,227,2.0,2.0,42,0.00,,,0.00,Wunderground v.1.15,2013-04-28 22:19:00,
2013-04-28 18:24:00,60.5,37.3,30.20,West,275,1.0,2.0,42,0.00,,,0.00,Wunderground v.1.15,2013-04-28 22:24:00,
2013-04-28 18:29:00,60.2,37.6,30.20,SSE,164,1.0,1.0,43,0.00,,,0.00,Wunderground v.1.15,2013-04-28 22:29:00,
2013-04-28 18:34:00,60.2,37.6,30.20,NW,304,1.0,1.0,43,0.00,,,0.00,Wunderground v.1.15,2013-04-28 22:34:00,
2013-04-28 18:44:00,59.6,37.1,30.20,WNW,298,1.0,1.0,43,0.00,,,0.00,Wunderground v.1.15,2013-04-28 22:44:00,
2013-04-28 18:49:00,59.5,37.0,30.20,SSE,162,1.0,1.0,43,0.00,,,0.00,Wunderground v.1.15,2013-04-28 22:49:00,
2013-04-28 18:54:00,59.3,36.8,30.20,WSW,258,1.0,1.0,43,0.00,,,0.00,Wunderground v.1.15,2013-04-28 22:54:00,
2013-04-28 18:59:00,59.2,36.7,30.20,SW,223,1.0,1.0,43,0.00,,,0.00,Wunderground v.1.15,2013-04-28 22:59:00,
2013-04-28 19:04:00,59.0,38.8,30.20,South,172,0.0,1.0,47,0.00,,,0.00,Wunderground v.1.15,2013-04-28 23:04:00,
2013-04-28 19:14:00,58.6,37.9,30.20,WSW,247,1.0,1.0,46,0.00,,,0.00,Wunderground v.1.15,2013-04-28 23:14:00,
2013-04-28 19:19:00,58.3,38.1,30.20,SSE,155,1.0,1.0,47,0.00,,,0.00,Wunderground v.1.15,2013-04-28 23:19:00,
2013-04-28 19:24:00,58.1,38.0,30.20,SSW,203,0.0,1.0,47,0.00,,,0.00,Wunderground v.1.15,2013-04-28 23:24:00,
2013-04-28 19:29:00,57.6,37.5,30.20,SSE,160,0.0,0.0,47,0.00,,,0.00,Wunderground v.1.15,2013-04-28 23:29:00,
2013-04-28 19:34:00,57.3,38.3,30.20,WSW,240,0.0,1.0,49,0.00,,,0.00,Wunderground v.1.15,2013-04-28 23:34:00,
2013-04-28 19:39:00,57.0,38.0,30.20,SSE,165,0.0,0.0,49,0.00,,,0.00,Wunderground v.1.15,2013-04-28 23:39:00,
2013-04-28 19:49:00,56.6,37.6,30.19,SSE,148,0.0,0.0,49,0.00,,,0.00,Wunderground v.1.15,2013-04-28 23:49:00,
2013-04-28 19:54:00,56.3,38.4,30.19,SSE,148,0.0,0.0,51,0.00,,,0.00,Wunderground v.1.15,2013-04-28 23:54:00,
2013-04-28 20:04:00,55.9,38.0,30.19,SSE,148,0.0,0.0,51,0.00,,,0.00,Wunderground v.1.15,2013-04-29 00:04:00,
2013-04-28 20:09:00,55.4,38.1,30.19,SSE,147,0.0,0.0,52,0.00,,,0.00,Wunderground v.1.15,2013-04-29 00:09:00,
2013-04-28 20:14:00,55.0,37.7,30.19,SSE,147,0.0,0.0,52,0.00,,,0.00,Wunderground v.1.15,2013-04-29 00:14:00,
2013-04-28 20:19:00,54.7,37.9,30.19,SSE,155,0.0,0.0,53,0.00,,,0.00,Wunderground v.1.15,2013-04-29 00:19:00,
2013-04-28 20:24:00,54.4,38.1,30.19,SSE,155,0.0,0.0,54,0.00,,,0.00,Wunderground v.1.15,2013-04-29 00:24:00,
2013-04-28 20:34:00,53.9,38.1,30.19,SSE,155,0.0,0.0,55,0.00,,,0.00,Wunderground v.1.15,2013-04-29 00:34:00,
2013-04-28 20:39:00,53.6,37.8,30.19,SSE,155,0.0,0.0,55,0.00,,,0.00,Wunderground v.1.15,2013-04-29 00:39:00,
2013-04-28 20:44:00,53.3,38.4,30.19,SSE,155,0.0,0.0,57,0.00,,,0.00,Wunderground v.1.15,2013-04-29 00:44:00,
2013-04-28 20:54:00,52.8,38.0,30.19,SSE,155,0.0,0.0,57,0.00,,,0.00,Wunderground v.1.15,2013-04-29 00:54:00,
2013-04-28 20:59:00,52.5,37.7,30.19,SSE,155,0.0,0.0,57,0.00,,,0.00,Wunderground v.1.15,2013-04-29 00:59:00,
2013-04-28 21:04:00,52.3,38.4,30.19,SSE,155,0.0,0.0,59,0.00,,,0.00,Wunderground v.1.15,2013-04-29 01:04:00,
2013-04-28 21:09:00,52.0,38.1,30.19,SSE,155,0.0,0.0,59,0.00,,,0.00,Wunderground v.1.15,2013-04-29 01:09:00,
2013-04-28 21:14:00,51.9,38.0,30.19,SSE,155,0.0,0.0,59,0.00,,,0.00,Wunderground v.1.15,2013-04-29 01:14:00,
2013-04-28 21:19:00,51.6,38.6,30.20,SSE,155,0.0,0.0,61,0.00,,,0.00,Wunderground v.1.15,2013-04-29 01:19:00,
2013-04-28 21:29:00,51.0,38.0,30.20,SSE,155,0.0,0.0,61,0.00,,,0.00,Wunderground v.1.15,2013-04-29 01:29:00,
2013-04-28 21:34:00,50.7,38.1,30.20,SSE,155,0.0,0.0,62,0.00,,,0.00,Wunderground v.1.15,2013-04-29 01:34:00,
2013-04-28 21:39:00,50.4,37.9,30.20,SSE,155,0.0,0.0,62,0.00,,,0.00,Wunderground v.1.15,2013-04-29 01:39:00,
2013-04-28 21:44:00,49.9,37.8,30.20,SSE,155,0.0,0.0,63,0.00,,,0.00,Wunderground v.1.15,2013-04-29 01:44:00,
2013-04-28 21:49:00,49.9,38.2,30.21,SSE,155,0.0,0.0,64,0.00,,,0.00,Wunderground v.1.15,2013-04-29 01:49:00,
2013-04-28 21:59:00,49.2,38.3,30.21,SSE,155,0.0,0.0,66,0.00,,,0.00,Wunderground v.1.15,2013-04-29 01:59:00,
2013-04-28 22:04:00,48.8,38.3,30.21,SSE,155,0.0,0.0,67,0.00,,,0.00,Wunderground v.1.15,2013-04-29 02:04:00,
2013-04-28 22:09:00,48.6,38.1,30.21,SSE,155,0.0,0.0,67,0.00,,,0.00,Wunderground v.1.15,2013-04-29 02:09:00,
2013-04-28 22:14:00,48.2,38.5,30.21,SSE,155,0.0,0.0,69,0.00,,,0.00,Wunderground v.1.15,2013-04-29 02:14:00,
2013-04-28 22:19:00,47.9,38.2,30.21,SSE,155,0.0,0.0,69,0.00,,,0.00,Wunderground v.1.15,2013-04-29 02:19:00,
2013-04-28 22:24:00,47.7,38.0,30.21,SSE,155,0.0,0.0,69,0.00,,,0.00,Wunderground v.1.15,2013-04-29 02:24:00,
2013-04-28 22:34:00,47.0,37.7,30.21,SSE,155,0.0,0.0,70,0.00,,,0.00,Wunderground v.1.15,2013-04-29 02:34:00,
2013-04-28 22:39:00,46.8,37.5,30.21,SSE,155,0.0,0.0,70,0.00,,,0.00,Wunderground v.1.15,2013-04-29 02:39:00,
2013-04-28 22:44:00,46.5,37.2,30.21,SSE,155,0.0,0.0,70,0.00,,,0.00,Wunderground v.1.15,2013-04-29 02:44:00,
2013-04-28 22:49:00,46.4,37.9,30.21,SSE,155,0.0,0.0,72,0.00,,,0.00,Wunderground v.1.15,2013-04-29 02:49:00,
2013-04-28 22:59:00,46.0,37.5,30.21,SSE,155,0.0,0.0,72,0.00,,,0.00,Wunderground v.1.15,2013-04-29 02:59:00,
2013-04-28 23:04:00,45.8,37.3,30.21,SSE,155,0.0,0.0,72,0.00,,,0.00,Wunderground v.1.15,2013-04-29 03:04:00,
2013-04-28 23:14:00,45.4,36.9,30.21,SSE,155,0.0,0.0,72,0.00,,,0.00,Wunderground v.1.15,2013-04-29 03:14:00,
2013-04-28 23:19:00,45.2,36.7,30.21,SSE,155,0.0,0.0,72,0.00,,,0.00,Wunderground v.1.15,2013-04-29 03:19:00,
2013-04-28 23:24:00,45.1,37.3,30.21,SSE,155,0.0,0.0,74,0.00,,,0.00,Wunderground v.1.15,2013-04-29 03:24:00,
2013-04-28 23:29:00,44.9,37.1,30.21,SSE,155,0.0,0.0,74,0.00,,,0.00,Wunderground v.1.15,2013-04-29 03:29:00,
2013-04-28 23:34:00,44.6,37.2,30.21,SSE,155,0.0,0.0,75,0.00,,,0.00,Wunderground v.1.15,2013-04-29 03:34:00,
2013-04-28 23:39:00,44.5,37.4,30.21,SSE,155,0.0,0.0,76,0.00,,,0.00,Wunderground v.1.15,2013-04-29 03:39:00,
2013-04-28 23:44:00,44.3,37.2,30.21,SSE,155,0.0,0.0,76,0.00,,,0.00,Wunderground v.1.15,2013-04-29 03:44:00,
2013-04-28 23:49:00,44.2,37.4,30.21,SSE,155,0.0,0.0,77,0.00,,,0.00,Wunderground v.1.15,2013-04-29 03:49:00,
2013-04-28 23:54:00,44.1,37.0,30.21,SSE,155,0.0,0.0,76,0.00,,,0.00,Wunderground v.1.15,2013-04-29 03:54:00,
2013-04-28 23:59:00,44.1,37.3,30.21,SSE,155,0.0,0.0,77,0.00,,,0.00,Wunderground v.1.15,2013-04-29 03:59:00,